events-overview

Kinetic Sprint

 

Overall Men

Lake Anna State Park 4/20/2008 11:00AM

** Results are for the private use of participants and are the Intellectual Property of Set Up Events. Unauthorized use of these results is prohibited.

Place Age Cat. Bib NAME CITY/STATE Rank SWIM Rank T1 Rank BIKE Rank T2 Rank RUN PENALTY TIME DQ
131EM8BILLY EDWARDSBOULDER CO3300:12:52200:01:16100:41:52800:01:01500:17:56 01:14:55 
224EM23BRADLEY PIGAGEELIZABETH CITY NC1500:11:44400:01:20300:43:291300:01:01700:18:11 01:15:43 
326EM759TODD STACKHOUSEROSEMONT PA100:10:27600:01:23800:45:10900:01:011800:19:21 01:17:20 
427EM21MATIAS PALAVECINOWASHINGTON DC1000:11:19100:01:151200:46:051800:01:01200:17:44 01:17:22 
526EM16MIKE MARSTELLEREMMAUS PA4800:13:38500:01:23400:43:541400:01:01400:17:46 01:17:39 
634EM4CHIP BERRYSPRINGFIELD VA300:10:38700:01:251500:46:45700:01:01900:18:17 01:18:04 
721EM12JASON HOWARDNORFOLK VA4900:13:421700:01:37200:43:081500:01:011100:18:43 01:18:09 
847 146CAL BIESECKERBARBOURSVILLE VA3000:12:394500:01:58500:44:262500:01:061400:19:18 01:19:24 
935 599DEREK RUSSELLVIRGINIA BEACH VA600:11:042100:01:391000:45:46300:00:552900:20:09 01:19:31 
1026EM5ZACHARY BRITTONWASHINGTON DC1100:11:21300:01:192400:47:471600:01:011000:18:33 01:19:59 
1127EM17RYAN MCGRATHBALTIMORE MD5400:13:451900:01:381300:46:051200:01:01800:18:17 01:20:44 
1246MM32DAVID CASCIORESTON VA1400:11:381800:01:381800:47:091900:01:012100:19:28 01:20:52 
1334 276EDWIN GARITARICHMOND VA2600:12:223000:01:47900:45:409600:01:342300:19:41 01:21:03 
1431EM14OTHO KELLERBALTIMORE MD200:10:301000:01:292800:47:571700:01:013100:20:16 01:21:11 
1537 217BRIAN DAVISROCKVILLE MD700:11:106100:02:112100:47:205500:01:221900:19:23 01:21:24 
1639 710PETER WARNERARLINGTON VA6000:13:531300:01:34600:45:043100:01:083200:20:21 01:21:58 
1731 305ROBERT GREENMIDLOTHIAN VA5500:13:48800:01:271100:46:03100:00:462700:19:57 01:21:59 
1825EM22GEOFF PATTERSONARLINGTON VA1200:11:271400:01:342500:47:482000:01:013500:20:22 01:22:11 
1926EM27RYAN STROHLARLINGTON VA10900:15:025200:02:031900:47:094100:01:14100:17:21 01:22:48 
2031EM10BART FORSYTHARLINGTON VA11900:15:103100:01:50700:45:101100:01:012600:19:54 01:23:02 
2131EM20DAVID ORTONRESTON VA900:11:171600:01:353900:48:431000:01:014600:20:50 01:23:24 
2230 692CHAD ULRICHEMERALD ISLE NC3900:13:072300:01:413700:48:284200:01:151300:19:08 01:23:36 
2332 678ENRIQUE TOMEUVIRGINIA BEACH VA2500:12:204600:02:003200:48:193600:01:133700:20:23 01:24:13 
2426 221TRAVIS DECKERTMIDLOTHIAN VA400:10:569000:02:283100:48:175600:01:226200:21:18 01:24:18 
2517 280TYLER GEHRSALEXANDRIA VA500:11:006000:02:106400:50:052100:01:024000:20:33 01:24:48 
2643 728BILL WIGHTMANHARRISONBURG VA8200:14:264900:02:011700:47:023400:01:123400:20:21 01:25:01 
2730 434JONATHAN LOKBURKE VA2800:12:321200:01:323500:48:212400:01:058600:21:54 01:25:23 
2824EM6WILLIAM BYLUNDGREAT FALLS VA5300:13:454400:01:587100:50:354000:01:14600:18:03 01:25:32 
2930 530RYAN PARKSALEXANDRIA VA1700:12:0513600:02:522900:48:0819400:02:063900:20:26 01:25:36 
3042MM35FLORIAN (RYAN) ZEENDERALEXANDRIA VA8800:14:302200:01:393400:48:20600:01:003000:20:12 01:25:39 
PlaceAgeCat.BibNAMECITY/STATERankSWIMRankT1RankBIKERankT2RankRUNPENALTYTIMEDQ
3140 324DAVID HARTSTUDLEY VA7300:14:165700:02:084700:49:076300:01:251200:18:54 01:25:49 
3238 359BRANDON HUTCHERSONGLEN ALLEN VA2000:12:12900:01:294200:48:503900:01:139900:22:13 01:25:55 
3329 725BRIAN WHITESELLGAMBRILLS MD2400:12:206200:02:116600:50:1313300:01:482500:19:49 01:26:19 
3425 512PETER NGUYENNORTH POTOMAC MD7000:14:029300:02:294600:49:046600:01:261700:19:21 01:26:20 
3530 363KEITH JACKSONCHARLOTTESVILLE VA3800:13:014100:01:552600:47:5515100:01:537100:21:42 01:26:24 
3636 304KEVIN GREENGAITHERSBURG MD7400:14:176400:02:112300:47:353300:01:115700:21:13 01:26:26 
3734 149DEREK BIRDARLINGTON VA2700:12:304200:01:566700:50:212200:01:034400:20:44 01:26:33 
3825EM7NATHAN CURLLARLINGTON VA1300:11:293600:01:536100:49:574500:01:179700:22:13 01:26:46 
3938 139DARREN BEILSTEINWILLIAMSBURG VA5600:13:502700:01:453000:48:103000:01:0810500:22:19 01:27:10 
4052 510DANIEL NEUFFERARLINGTON VA6900:14:014300:01:572000:47:147700:01:2811600:22:37 01:27:16 
4141 281RICHARD GENDRONDUNN LORING VA7500:14:171100:01:311600:46:598300:01:2913000:23:13 01:27:27 
4225 128DAVID BARAHONARESTON VA6800:14:012400:01:416800:50:29400:00:573800:20:24 01:27:30 
4329 123SCOTT BAILEYLEESBURG VA14700:15:432800:01:475400:49:412800:01:071600:19:20 01:27:35 
4425EM13JASON JENNINGSCHERRY HILL NJ800:11:106900:02:1516100:54:1022200:02:19300:17:45 01:27:37 
4532 658DAMON TAAFFEARLINGTON VA4700:13:344700:02:004000:48:457600:01:289000:22:01 01:27:46 
4640 329KENNETH TREY HASKELLHARRISONBURG VA7600:14:1911100:02:392200:47:359500:01:347800:21:49 01:27:53 
4731 744JASON YODERCHESAPEAKE VA2900:12:3312400:02:457300:50:402700:01:064800:20:52 01:27:55 
4851 193RANDY CHRISTOFFERSONGREENVILLE DE11400:15:075500:02:071400:46:287000:01:2612500:22:55 01:27:59 
4936 717JAMES WEISSTAFFORD VA9100:14:318100:02:254100:48:474700:01:186400:21:20 01:28:20 
5046 709CHIP WARFELELLICOTT CITY MD4200:13:179400:02:295100:49:275000:01:198400:21:54 01:28:24 
5116 38BRENDON ADAMSMANASSAS VA1900:12:098800:02:279300:51:484900:01:184500:20:48 01:28:28 
5226EM28JACK WILLIARDARLINGTON VA6200:13:571500:01:3512700:52:51200:00:511500:19:18 01:28:31 
5354 287STEVEN GIORGISHERNDON VA3600:12:568900:02:285500:49:4215700:01:576800:21:39 01:28:40 
5444 138TOM BEGLEYSTERLING VA13200:15:222000:01:384400:48:562900:01:077300:21:43 01:28:44 
5538 747BARRY YOUNGRUCKERSVILLE VA15500:16:0511200:02:403300:48:1920800:02:132200:19:33 01:28:47 
5649 506BART NELSONRICHMOND VA3100:12:4218500:03:194900:49:1620300:02:118200:21:52 01:29:18 
5731 637HARRISON SMIDDYABINGDON MD5700:13:518300:02:265200:49:276800:01:2610200:22:16 01:29:23 
5832 270JOHN FRENCHCALIFORNIA MD4300:13:212500:01:4410100:51:598800:01:315300:21:04 01:29:37 
5930 187WILLIAM CASTILLOHERNDON VA8600:14:274000:01:558100:51:125800:01:235200:21:03 01:29:58 
6046 306STEVE GRIFFITHGLEN ALLEN VA9000:14:3110300:02:355300:49:3011200:01:428700:21:55 01:30:10 
6142 278KARL GASKINSWOODBRIDGE VA9400:14:382900:01:476900:50:314300:01:159400:22:08 01:30:18 
PlaceAgeCat.BibNAMECITY/STATERankSWIMRankT1RankBIKERankT2RankRUNPENALTYTIMEDQ
6246 442STEVE MABEUSMONTCLAIR VA4600:13:3219200:03:225600:49:437800:01:2810600:22:25 01:30:28 
6347 125MICHAEL BALDWINRICHMOND VA18600:16:546700:02:133800:48:3612100:01:455000:21:02 01:30:29 
6439 218JEFFREY DAVISWASHINGTON DC3400:12:527600:02:227000:50:3321700:02:1611500:22:37 01:30:38 
6529 651J.R. STRATTONFALLS CHURCH VA7800:14:2112500:02:467200:50:362600:01:068800:21:56 01:30:42 
6630 432DAVID LOEWENSTEINERLUSBY MD3200:12:518000:02:2411500:52:273500:01:129600:22:10 01:31:02 
6739 455MICHAEL MATNEYFREDERICK MD16800:16:2616300:03:074500:49:0021400:02:144100:20:36 01:31:21 
6842 169JAMES BROWNGERMANTOWN MD4100:13:1121500:03:396000:49:5424600:02:309800:22:13 01:31:25 
6950 153ROBERT BOSLEYVIRGINIA BEACH VA11500:15:075400:02:054800:49:126200:01:2514600:23:41 01:31:28 
7036 523ROBERT OSTERRIEDSTERLING VA21400:17:217800:02:236300:49:596900:01:263600:20:23 01:31:29 
7132 176ROBERT BUNDYBRAMBLETON VA11200:15:0519300:03:234300:48:5218300:02:0210900:22:31 01:31:52 
7240 504JIM NEALECHARLOTTESVILLE VA13100:15:217500:02:202700:47:578900:01:3120700:25:03 01:32:10 
7355 493MICHAEL MORRISROANOKE VA10000:14:5211000:02:376200:49:5918100:02:0212300:22:53 01:32:21 
7431 311FABRICE GUILLAUMEASHBURN VA15800:16:126600:02:119200:51:458700:01:314700:20:51 01:32:28 
7539C79CARLOS RODRIGUEZWHEATON MD           01:32:30 
7625 647KEVIN STAPLETONGREENBELT MD18700:16:556800:02:155700:49:4617200:02:007200:21:42 01:32:36 
7729 726LUKE WHITTEMOREALEXANDRIA VA7100:14:0924800:04:037600:50:5319100:02:056500:21:29 01:32:38 
7839C58DARYL CHESLEYFREDERICKSBURG VA10600:14:598700:02:2710500:52:075200:01:208500:21:54 01:32:44 
7934 468SCOTT MCPHERSONSTAFFORD VA7200:14:117400:02:1710700:52:1010300:01:3811800:22:42 01:32:56 
8034 594PETER ROWANWASHINGTON DC3500:12:5214500:02:5616200:54:1218400:02:035100:21:03 01:33:03 
8132 196SHAWN CLARKRESTON VA9900:14:4912300:02:456500:50:0612400:01:4616000:23:52 01:33:17 
8243 210JAY CRABTREERICHMOND VA11700:15:083200:01:5111900:52:353800:01:1311100:22:33 01:33:18 
8323EM19TIMOTHY O'CONNORVIRGINIA BEACH VA23500:18:0410700:02:379400:51:506500:01:252000:19:25 01:33:19 
8433 702ERIC VOBORILBALTIMORE MD16200:16:195600:02:079000:51:374600:01:179100:22:02 01:33:20 
8548 439WYLIE LOWERYWOODBRIDGE VA12300:15:119200:02:288200:51:1510700:01:4012200:22:52 01:33:23 
8636 479GREG MILLERARLINGTON VA15200:15:585100:02:0312200:52:449200:01:335900:21:13 01:33:29 
8738 552STEVEN POHNERTVIENNA VA2100:12:148600:02:2714400:53:2819200:02:0513500:23:24 01:33:36 
8831 201CHRIS COFFINGCHARLOTTESVILLE VA12100:15:1018100:03:167900:51:0311600:01:4211300:22:35 01:33:45 
8937 410KEVIN KUNKELRESTON VA27900:19:293700:01:533600:48:289400:01:3311000:22:33 01:33:54 
9027 721JUSTIN WELLS-MORGANALEXANDRIA VA9600:14:4521300:03:379600:51:5115200:01:538000:21:50 01:33:55 
9123 282ALEXANDER GEORGEANNAPOLIS MD12900:15:197000:02:1618800:55:099000:01:312400:19:46 01:33:59 
9242 606EDMUND SABOFREDERICKSBURG VA14600:15:4213500:02:5210600:52:098600:01:307700:21:48 01:33:59 
PlaceAgeCat.BibNAMECITY/STATERankSWIMRankT1RankBIKERankT2RankRUNPENALTYTIMEDQ
9335 694JEREMY VAILWASHINGTON DC5100:13:4311300:02:407700:50:5820100:02:0918900:24:37 01:34:05 
9441 646RICHARD STALLINGSFAIRFAX VA14100:15:3010000:02:3310300:52:0212600:01:4610700:22:29 01:34:17 
9540 688PETER TUNNARDFAIRFAX VA6100:13:5621000:03:347400:50:4615500:01:5617300:24:09 01:34:19 
9639 292PETER GOBELLELLICOTT CITY MD6700:14:0013400:02:5111300:52:2325700:02:3511200:22:33 01:34:19 
9756 121GERRY AUMANGUM TREE PA12700:15:1615600:03:037800:51:017500:01:2815100:23:46 01:34:32 
9842 209BOB COXLORTON VA17100:16:278400:02:2612100:52:394400:01:157500:21:47 01:34:33 
9927C62MIKE DORIBALTIMORE MD1600:11:4914900:02:5811600:52:276000:01:2424800:25:57 01:34:33 
10024 377BRIAN JONESGAITHERSBURG MD12000:15:1021800:03:4210400:52:0614000:01:497900:21:50 01:34:35 
10148 630KEVIN SHAWALEXANDRIA VA10300:14:549800:02:3213400:53:1016800:01:599500:22:09 01:34:42 
10233 348PATRICK HOGANRIVA MD20700:17:123400:01:525000:49:2512500:01:4618700:24:34 01:34:48 
10342 533REZA PARVIZIBOYDS MD7900:14:2215500:03:0217300:54:2818500:02:035600:21:12 01:35:05 
10436 317H. RAMI HAMROUNIFREDERICKSBURG VA27600:19:145800:02:0911100:52:1911700:01:432800:20:01 01:35:23 
10548 336LUBIN HERNANDEZ PALOMINOSILVER SPRING MD12400:15:1214800:02:588800:51:3017300:02:0015200:23:46 01:35:24 
10632 124IRAWAN BALCETWASHINGTON DC13800:15:2816000:03:0610800:52:109700:01:3412900:23:09 01:35:26 
10745 696SERGE VANDERBREETSTRAETENALEXANDRIA VA10700:14:5919100:03:229500:51:5014500:01:5113800:23:27 01:35:27 
10831 568ERIK REAVESWASHINGTON DC8900:14:3014700:02:5621100:56:149100:01:323300:20:21 01:35:32 
10943 723BILL WHEELERELLICOTT CITY MD21500:17:2417500:03:149100:51:4312300:01:457400:21:46 01:35:51 
11031 613JOHN SCHALLERRESTON VA18100:16:467100:02:168400:51:1813400:01:4815900:23:50 01:35:55 
11123 352PHILLIP HOWARDPOOLESVILLE MD10400:14:5524500:04:0213800:53:1517700:02:018100:21:51 01:36:02 
11228 708PHILIP WALLINRICHMOND VA2300:12:173500:01:5319600:55:407400:01:2820200:24:57 01:36:12 
11330 315BRIAN HAINARLINGTON VA17900:16:3910100:02:3315200:53:4113500:01:496600:21:36 01:36:16 
11452 252FARLEY FENTONHARRISONBURG VA6600:13:5813300:02:5111700:52:2917000:01:5920500:25:01 01:36:17 
11540 37STEVEN ACKERSONANNAPOLIS MD5800:13:5110500:02:3514100:53:205300:01:2013200:23:1500:02:0001:36:20 
11636 398RANDALL KISERRESTON VA9800:14:4917700:03:1513200:53:058000:01:2915700:23:48 01:36:24 
11742 113DANIEL ANDERSONROCKVILLE MD15700:16:0819900:03:2713100:53:0528000:02:495500:21:10 01:36:37 
11841 310MATTHIAS GRUENINGERBETHESDA MD11000:15:0218400:03:1811800:52:2918900:02:0415500:23:47 01:36:39 
11929 411WILLIAM KUPERFAIRFAX VA11600:15:0814600:02:5618400:54:587100:01:2610800:22:31 01:36:56 
12054 130DENNIS BARRRIDGE MD17200:16:3211800:02:419900:51:534800:01:1818800:24:35 01:36:58 
12118 443MICHAEL MABEUSMONTCLAIR VA5200:13:4412000:02:4319100:55:227900:01:2915300:23:46 01:37:02 
12238 638TIM SMITHWOODBRIDGE VA17300:16:349100:02:2818100:54:5216900:01:595800:21:13 01:37:04 
12336 380STEPHEN KAHNSOUTH RIDING VA9200:14:327700:02:2212900:53:0218700:02:0321400:25:10 01:37:07 
PlaceAgeCat.BibNAMECITY/STATERankSWIMRankT1RankBIKERankT2RankRUNPENALTYTIMEDQ
12448 445STEPHEN MACKEYSTAFFORD VA9700:14:4522300:03:449800:51:5326400:02:3818000:24:22 01:37:20 
12556 157STEVE BRADLEYPURCELLVILLE VA14500:15:403800:01:5415800:54:0320600:02:1214700:23:41 01:37:27 
12642 338JOHN HESFORDFAIRFAX VA8100:14:2411500:02:4024300:57:5712900:01:474300:20:43 01:37:30 
12732 364SIMON JACKSONWASHINGTON DC26000:18:4515800:03:057500:50:4711000:01:4213600:23:25 01:37:42 
12858 206DAVID CONOVERGREAT FALLS VA8500:14:268500:02:2614900:53:389300:01:3323600:25:43 01:37:45 
12935C70VEDAT KAPLANFREDERICK MD15400:15:592600:01:4412800:52:57500:00:5825500:26:23 01:38:00 
13046MC155CRAIG BOUMACHARLES TOWN WV28100:19:3324100:03:575900:49:5129900:03:056900:21:41 01:38:05 
13139 750MARK YURISHSTAUNTON VA27500:19:1215000:02:5813300:53:0910000:01:376300:21:18 01:38:12 
13226 674CHESLEY THURBERSILVER SPRING MD11300:15:0623700:03:5313000:53:0316400:01:5817800:24:21 01:38:19 
13324 444AARON MACKENZIELYNCHBURG VA19000:16:5914300:02:5514200:53:2510800:01:4113400:23:24 01:38:22 
13436 467ZAK MCNAMARAALEXANDRIA VA19800:17:0634900:06:315800:49:4622600:02:2112100:22:45 01:38:27 
13530C89JOHNNY WILLIAMSARLINGTON VA17500:16:3628500:04:3614700:53:3120500:02:116700:21:38 01:38:30 
13622 332WALTER HAYDOCKANNAPOLIS MD12800:15:197200:02:1723000:57:1514600:01:528900:21:56 01:38:37 
13746 687GREG TUCKMECHANICSVILLE VA20800:17:1220500:03:2819500:55:3810900:01:414200:20:39 01:38:37 
13848 262PETER FOLGEROAKTON VA14000:15:3020000:03:2713500:53:1121300:02:1418100:24:23 01:38:42 
13922 211ANDREW CRAIGBUFORD GA19900:17:066300:02:1111400:52:2622800:02:2219200:24:40 01:38:44 
14033 15PABLO LOPEZ-MURPHYROCKVILLE MD20300:17:0920100:03:2718500:55:0217500:02:005400:21:09 01:38:46 
14125 753DARRELL ZLOTNICKWASHINGTON DC14800:15:4610200:02:3414600:53:3115800:01:5721000:25:05 01:38:51 
14239 729MARK WILLIAMSHERNDON VA9500:14:3916500:03:0916400:54:1225800:02:3517900:24:21 01:38:55 
14332 346ERIK HOFFLANDWASHINGTON DC29900:20:0913700:02:538500:51:1923500:02:2410100:22:15 01:38:58 
14433 215DAVID CRUMFAIRFAX VA7700:14:1920800:03:3117800:54:4923900:02:2816200:23:53 01:38:59 
14537 681MATT TOURVILLEALEXANDRIA VA18300:16:4810600:02:3616600:54:1515000:01:5314200:23:31 01:39:00 
14651 643DAVID SPARTINWILMINGTON DE22100:17:3610800:02:378600:51:1918000:02:0222400:25:30 01:39:02 
14726 238MARK DYERBETHESDA MD17000:16:2726300:04:1514300:53:2728200:02:5110000:22:14 01:39:12 
14840MC57STEVE BREISETHGREAT FALLS VA8000:14:233900:01:5420300:55:523700:01:1324600:25:57 01:39:17 
14938 247JAMES ERWINWASHINGTON DC15000:15:543300:01:5222500:56:5418200:02:0211900:22:43 01:39:24 
15044 300HUGO GONZALEZST. LEONARD, MD MD10200:14:5328000:04:3016300:54:1213000:01:4817200:24:06 01:39:26 
15131 414SCOTT LAKEELLICOTT CITY MD16500:16:2110400:02:358700:51:2919800:02:0827100:27:01 01:39:32 
15232 427MONTE LEWISGAITHERSBURG MD15100:15:5521900:03:4216700:54:1728100:02:5012600:22:57 01:39:38 
15349MC96KIP JAWISHFREDERICK MD11800:15:095000:02:0219700:55:405100:01:1922800:25:32 01:39:40 
15444 486DON MOATSCHAMBERSBURG PA23300:18:0226500:04:1612500:52:4918600:02:0311400:22:35 01:39:43 
PlaceAgeCat.BibNAMECITY/STATERankSWIMRankT1RankBIKERankT2RankRUNPENALTYTIMEDQ
15532 730BRYAN WILLIAMSARLINGTON VA5900:13:5217000:03:1123700:57:3416200:01:5813100:23:14 01:39:46 
15636 140BRIAN BELFIELDWARSAW VA29300:19:527300:02:1710200:52:008400:01:3017500:24:13 01:39:50 
15736 501DAVID NAELONDAVIDSON NC14400:15:3512900:02:5015000:53:3929800:03:0519900:24:50 01:39:57 
15838 362MARK IVORYSPOTSYLVANIA VA14300:15:3312600:02:4919000:55:1910200:01:3819600:24:45 01:40:01 
15931 184DAVID CARSONDULLES VA13900:15:2916800:03:1015400:53:4913100:01:4824100:25:49 01:40:02 
16034 230JIMMY DODSONWASHINGTON DC8300:14:2613800:02:5320000:55:4724000:02:2818500:24:31 01:40:04 
16129 178DERRICK CAINIONWASHINGTON DC21800:17:2815100:03:0014000:53:1926600:02:3914900:23:44 01:40:08 
16249 478DAVID MILLERMIDDLETOWN MD20500:17:1026800:04:1911200:52:2031200:03:2812800:23:01 01:40:15 
16331 603ADAM RUTZELLICOTT CITY MD5000:13:4322000:03:4220200:55:4920000:02:0920100:24:57 01:40:18 
16429 141RICHARD BELLSILVER SPRING MD19100:17:0017100:03:1122100:56:4624400:02:294900:20:56 01:40:20 
16543 655MICHAEL SWEENEYCHEVY CHASE MD13400:15:2425900:04:138000:51:0735400:04:3520800:25:03 01:40:21 
16638 284JOHN GILLGERMANTOWN MD17700:16:3711400:02:4017600:54:4727700:02:4714300:23:33 01:40:22 
16736 623MATTHEW SCHWABELBARBOURSVILLE VA29800:20:0527100:04:1912000:52:3712000:01:447600:21:47 01:40:32 
16842 152STEVE BOOKFAIRFAX VA13300:15:2314400:02:5518900:55:1127000:02:4118300:24:30 01:40:39 
16933C72JONAS LARANCERICHMOND VA25100:18:3223500:03:5312300:52:4421200:02:1314000:23:30 01:40:50 
17034 734JOSHUA WILLIAMSONWASHINGTON DC18500:16:5013100:02:5018000:54:5212200:01:4519100:24:38 01:40:53 
17139 231PETER DOOLANBETHESDA MD30100:20:1816900:03:109700:51:5319900:02:0814400:23:38 01:41:05 
17243MC100ZACHARY PICKETTNEWPORT NEWS VA6400:13:5713000:02:5019800:55:4614900:01:5326300:26:42 01:41:07 
17346 520PAUL ORME-SMITHGREAT FALLS VA24700:18:2617300:03:1218700:55:0621000:02:1310400:22:18 01:41:14 
17435 393MIKE KINGAMISSVIILE VA31900:20:5312700:02:4914500:53:287300:01:2811700:22:40 01:41:16 
17528 671MATTHEW THOMPSONLEXINGTON VA31500:20:455900:02:1015700:53:5423200:02:249300:22:05 01:41:16 
17629 541JASON PENTICOFFANNANDALE VA20000:17:0717400:03:1422800:57:1114100:01:509200:22:02 01:41:22 
17738 746CHRIS YOUNGFREDERICKSBURG VA33400:22:009900:02:3214800:53:328100:01:298300:21:54 01:41:25 
17844 389WILLIAM KENNEDYFAIRFAX VA19600:17:0420300:03:2817200:54:2724100:02:2816600:24:01 01:41:27 
17951MC90KEITH EMERYKENSINGTON MD10800:15:0010900:02:3724900:58:1321100:02:1313900:23:29 01:41:30 
18051 213TROY CRITESGAITHERSBURG MD20900:17:1321600:03:3911000:52:1711800:01:4326500:26:44 01:41:35 
18133 447PETER MANTERNACHBRISTOW VA32100:21:0817600:03:148900:51:3311300:01:4217600:24:14 01:41:49 
18228C61NICHOLAI DESSYPRISNEW YORK NY20100:17:0924600:04:0213700:53:1316100:01:5723100:25:36 01:41:55 
18329 268DAVID FOSTERCOLLEGE PARK MD8700:14:295300:02:0323100:57:2419000:02:0524700:25:57 01:41:56 
18440 241JEFF EDGELLFAIRMONT WV23000:17:5915300:03:0112400:52:4822700:02:2224500:25:51 01:41:59 
18534 624MATTHEW SEILERARLINGTON VA10500:14:5725000:04:0417700:54:4923700:02:2523900:25:47 01:42:00 
PlaceAgeCat.BibNAMECITY/STATERankSWIMRankT1RankBIKERankT2RankRUNPENALTYTIMEDQ
18645 527KEN PAKULAALEXANDRIA VA6300:13:5719000:03:2224100:57:3716300:01:5821300:25:10 01:42:01 
18745 572BILL REIDCHANTILLY VA23700:18:0618300:03:1815600:53:5114400:01:5020400:24:59 01:42:03 
18825 567WILSON REAKESMIDDLE RIVER MD31400:20:4419800:03:2610000:51:5515900:01:5716900:24:04 01:42:04 
18946 657JOHN SZCZYGIELARLINGTON VA19200:17:0016600:03:0910900:52:1522400:02:1928400:27:34 01:42:15 
19030 335MICHAEL HERDSONCOLUMBIA MD4400:13:2223100:03:4923900:57:3521900:02:1722500:25:31 01:42:33 
19141 254GEORGE FERRISPOTOMAC MD18800:16:5622600:03:4616900:54:2417800:02:0222600:25:31 01:42:36 
19234 370PETER JENSENVIENNA VA12500:15:1430600:05:0016500:54:1417900:02:0225300:26:19 01:42:48 
19333 575BRYAN RHODERICHMOND VA           01:42:48 
19443 224JOSEPH DELANEYASHBURN VA16900:16:2634800:06:3013600:53:1126800:02:3917100:24:05 01:42:50 
19546 631GEORGE SIGALROCKVILLE MD16700:16:2425200:04:0619200:55:2830800:03:1915600:23:47 01:43:01 
19637 129TOM BARBIERIRESTON VA15900:16:1416200:03:0720100:55:4820200:02:1023700:25:45 01:43:03 
19753 473DAVID METCALFCENTREVILLE VA24400:18:2324000:03:5717500:54:4619300:02:0616100:23:53 01:43:03 
19830 200DAVID CLIFTONARLINGTON VA23200:18:0121400:03:3815900:54:0319600:02:0721800:25:16 01:43:04 
19936 684CHAD TROYERSTAFFORD VA21600:17:2522800:03:4715300:53:4513700:01:4925700:26:29 01:43:13 
20025 285YURY GIMBURGWASHINGTON DC23400:18:0324700:04:0218300:54:5510100:01:3719400:24:43 01:43:19 
20146 596MARK RUCKHARLINGTON VA13000:15:2027400:04:2223200:57:2526100:02:3714800:23:42 01:43:23 
20229 313ERIC GUZMAN-ALVAREZARLINGTON VA15300:15:5914000:02:5421300:56:2031700:03:3519000:24:38 01:43:24 
20331 167MIKE BROWNBRAMBLETON VA25500:18:4213200:02:5117100:54:276400:01:2517000:24:0500:02:0001:43:28 
20453 457JOHN MATTSONCHESTER VA24900:18:3013900:02:5421000:56:1314700:01:5216800:24:03 01:43:29 
20537 508JEROME NELSONWARSAW VA31800:20:5219600:03:2415500:53:508500:01:3016400:23:57 01:43:32 
20640MC86DAVID TOMBLINALEXANDRIA VA16400:16:2020600:03:3017000:54:2418800:02:0427500:27:17 01:43:33 
20756 165BILL BRISTOWBURKE VA20600:17:1118200:03:1720800:56:036100:01:2423400:25:41 01:43:34 
20839 407ANDY KRAKOWSKIALEXANDRIA VA11100:15:0431600:05:1417400:54:3032900:03:4920600:25:02 01:43:36 
20928 564MIKE RABINOVITZCHARLOTTESVILLE VA13600:15:2715700:03:0424600:58:0422300:02:1921100:25:06 01:43:59 
21029 260CURTIS FLOODWASHINGTON DC19500:17:0329700:04:5121200:56:1519700:02:0815400:23:46 01:44:02 
21128C56KEVIN BOYLEASHBURN VA16100:16:1719700:03:2525100:58:2321500:02:1416500:23:58 01:44:16 
21242 499BRIAN MUMAWSANDY HOOK VA22600:17:4320400:03:2821600:56:2322900:02:2218200:24:27 01:44:22 
21343 172FORREST BROWNESPRINGFIELD VA22300:17:3924900:04:0325900:59:1314200:01:507000:21:41 01:44:25 
21444 295JAMES GODEKVIRGINIA BEACH VA21200:17:1731100:05:0621500:56:2224300:02:2813300:23:18 01:44:28 
21538 366PAUL JACOBSONFAIRFAX STATION VA22200:17:3718600:03:2018600:55:0330200:03:0822700:25:31 01:44:38 
21636 464J.P. MCDONOUGHFREDERICKSBURG VA28600:19:3822400:03:4516800:54:1825000:02:3219300:24:40 01:44:50 
PlaceAgeCat.BibNAMECITY/STATERankSWIMRankT1RankBIKERankT2RankRUNPENALTYTIMEDQ
21735 275RODRIGO GARCIACENTREVILLE VA26700:18:5625700:04:1117900:54:5212800:01:4622000:25:20 01:45:03 
21845 312TODD GUNDERSONELLICOTT CITY MD17800:16:3716400:03:0822300:56:5327900:02:4824200:25:49 01:45:13 
21947 562LEIGHTON QUICKHAMILTON VA13500:15:2717200:03:1224500:58:0328800:02:5423200:25:40 01:45:14 
22048 185JOHN CARTERBENTONVILLE VA14200:15:3223200:03:5020700:56:0120400:02:1123500:25:4200:02:0001:45:14 
22149 263RAND FOLKMANGLENELG MD25300:18:3725500:04:0716000:54:0526000:02:3724300:25:50 01:45:14 
22227 483BEN MINEHARTARLINGTON VA25200:18:3512100:02:4421400:56:2117600:02:0123300:25:40 01:45:20 
22344 418ANTON LARGIADERCHARLOTTESVILLE, VA VA30300:20:1925600:04:1013900:53:1715400:01:5623800:25:46 01:45:27 
22419 326ZAC HARTLESSLEXINGTON VA19400:17:0114200:02:5527201:00:025900:01:2417400:24:13 01:45:33 
22547MC71CHRIS KAVANAGHVIENNA VA28700:19:3823400:03:5115100:53:3916600:01:5825800:26:33 01:45:37 
22655 197JIM CLARKEAMISSVILLE VA16600:16:2319400:03:2326200:59:1713600:01:4919800:24:49 01:45:39 
22741MC87JIM WALTHERWARRENTON VA27700:19:229700:02:3119300:55:3110400:01:3826200:26:40 01:45:40 
22838 711MICHAEL WARNERFALLS CHURCH VA22500:17:4317800:03:1520600:55:5924700:02:3125900:26:36 01:46:01 
22936C66CHRISTOPHER GREERWASHINGTON DC12200:15:1011900:02:4324700:58:0911900:01:4330200:28:29 01:46:12 
23030 236MARC DUNCANWASHINGTON DC24000:18:0816100:03:0621800:56:2726700:02:3924900:25:59 01:46:17 
23126 110DAN AMBROSIOOAK HILL VA28300:19:3514100:02:5424400:57:5922000:02:1716700:24:03 01:46:46 
23241 137NIEL BEGGYKENSINGTON MD18900:16:5922700:03:4624200:57:3727800:02:4824400:25:50 01:46:58 
23337 412TIM KUTZSTERLING VA30900:20:3418000:03:1619400:55:3524500:02:2922200:25:25 01:47:18 
23433 459ERIC MAXEINERWASHINGTON DC28400:19:3620900:03:3329701:01:466700:01:266000:21:13 01:47:31 
23530 189AARON CATHEYALEXANDRIA VA21100:17:1621700:03:4022900:57:1433700:04:0222100:25:23 01:47:33 
23621C67MICHAEL HAASMAPLEWOOD NJ15600:16:0715200:03:0126900:59:493200:01:1128300:27:32 01:47:37 
23738 151MARK BOLOGNAARLINGTON VA34600:23:5219500:03:2420500:55:5712700:01:4612000:22:44 01:47:42 
23843 481TONY MILLERMIDLOTHIAN VA34800:23:5918800:03:208300:51:1710500:01:3828200:27:31 01:47:44 
23931C78EDWARD REYNOLDSWASHINGTON DC           01:47:44Y
24039 529JOHN PANEKBOWIE MD27300:19:0811600:02:4123800:57:3516000:01:5726700:26:50 01:48:09 
24129EM24JOSEPH PLANKWASHINGTON DC28500:19:3727500:04:2227100:59:5616500:01:5810300:22:18 01:48:09 
24230C177NATHAN CAHOONSTAFFORD VA31300:20:4323600:03:5322600:57:0129000:02:5514500:23:40 01:48:09 
24348 143WILLIAM BENKOWOODBRIDGE VA29500:20:0233500:05:5923600:57:3314300:01:5012400:22:53 01:48:15 
24419 625DONOVAN SEOWMIDLOTHIAN VA24200:18:1112200:02:4525600:58:552300:01:0528600:27:38 01:48:32 
24530C75JASON MILLERALEXANDRIA VA24300:18:1332500:05:3122000:56:4120900:02:1325000:26:06 01:48:42 
24638 351GRADY HOUGHFAIRFAX VA3700:13:0129900:04:5226000:59:1525300:02:3431500:29:15 01:48:55 
24735 453STEPHEN MARTYWOODBRIDGE VA25900:18:4532200:05:2125700:58:5525200:02:3313700:23:25 01:48:57 
PlaceAgeCat.BibNAMECITY/STATERankSWIMRankT1RankBIKERankT2RankRUNPENALTYTIMEDQ
24830 503JASON NAVONRESTON VA17600:16:3628100:04:3219900:55:4734500:04:1429400:28:04 01:49:11 
24926 592PAUL ROOTWASHINGTON DC20200:17:0932800:05:3926500:59:3028500:02:5217700:24:16 01:49:24 
25052 488PETER MONTANINOOAKTON VA25400:18:4230400:04:5622200:56:5124800:02:3127200:27:08 01:50:06 
25121 111JACOB AMMONLEXINGTON VA34000:22:2824300:04:0027301:00:0323600:02:256100:21:16 01:50:09 
25242 524ALLEN OUTLAWARLINGTON VA22400:17:3922100:03:4226400:59:2613800:01:4929200:27:56 01:50:31 
25343EM11JOHN GROMMERSCHESAPEAKE VA30000:20:137900:02:2330201:02:3714800:01:5214100:23:30 01:50:34 
25439 405JOHN KOSICHFALLS CHURCH VA21700:17:2827800:04:2825500:58:4823100:02:2328800:27:41 01:50:46 
25538 706JEFF WAGNERBRISTOW VA26400:18:5122200:03:4325300:58:4026300:02:3827000:27:00 01:50:49 
25647 549STEPHEN PLANTHERNDON VA33200:21:4430200:04:5525000:58:1513200:01:4818600:24:34 01:51:13 
25738C55FILIP BANOVACALEXANDRIA VA23800:18:0732400:05:2421700:56:2527100:02:4130500:28:40 01:51:14 
25833C88TODD WESTRICKSPRINGFIELD VA    28101:00:3127500:02:4528000:27:25 01:51:16Y
25941 174GREG BUCHNERPOTOMAC FALLS VA27100:19:0528600:04:3927000:59:5324200:02:2821500:25:13 01:51:17 
26040 116DEREK ARGUSTALEXANDRIA VA8400:14:2626100:04:1430301:02:3823000:02:2328700:27:40 01:51:20 
26135 518MICHAEL O'HARAHUNTERSVILLE NC32800:21:3030800:05:0320400:55:5631100:03:2323000:25:35 01:51:25 
26232 507MIKE NELSONBRISTOW VA31200:20:4215400:03:0222400:56:5324900:02:3129900:28:19 01:51:25 
26340 559ROBERT PUMPHREYKENSINGTON MD26100:18:4529000:04:4626600:59:3831600:03:3120000:24:53 01:51:32 
26447 205AL CONDESVIENNA VA24100:18:1129800:04:5229601:01:4329100:02:5516300:23:56 01:51:36 
26541 296DAVID GOGOLKIEWICZMANASSAS VA13700:15:2829100:04:4929101:01:1425900:02:3628900:27:42 01:51:47 
26647 290MICHAEL GLUECKWILLIAMSBURG VA27800:19:2524200:03:5725400:58:4226200:02:3727600:27:19 01:51:59 
26728 190DIEGO CEREZOWASHINGTON DC30200:20:1912800:02:4924000:57:3719500:02:0731100:29:09 01:51:59 
26838 490JOE MOOREMCLEAN VA30700:20:3421100:03:3628401:00:4822500:02:2019700:24:47 01:52:03 
26936 381STEVE KAPUSCHANSKYANNAPOLIS MD21000:17:1430100:04:5427701:00:1827300:02:4426900:27:00 01:52:07 
27028 563ESTEBAN QUINONESWASHINGTON DC17400:16:3528900:04:4328901:01:1130500:03:1126000:26:38 01:52:15 
27129C69BRIAN HENSALARLINGTON VA26300:18:4833700:06:0218200:54:5334900:04:1830300:28:36 01:52:35 
27249 375SHAWN JOHNSONWOODBRIDGE VA29000:19:4429500:04:5020900:56:0835600:04:4027700:27:19 01:52:40 
27342MC74PATRICK LILLYMIDLOTHIAN VA26500:18:5320700:03:3127501:00:049800:01:3530600:28:49 01:52:50 
27430 487ROSS MOIRARLINGTON MA10100:14:5226900:04:1930801:03:2328400:02:5228100:27:28 01:52:52 
27513 126KEVIN BALDWINRESTON VA19300:17:019600:02:3131501:03:5228600:02:5326400:26:43 01:52:57 
27649 682MATTHEW TREUTHSEVERNA PARK MD29700:20:0434200:06:1121900:56:3731400:03:2826600:26:49 01:53:07 
27747 34CHARLES PIERCEALEXANDRIA VA26900:19:0223300:03:5131101:03:325700:01:2322900:25:33 01:53:19 
27851 528PATRICIO PALAVECINOMONTGOMERY VILLAGE MD26800:18:5929300:04:4928201:00:4128300:02:5125200:26:08 01:53:26 
PlaceAgeCat.BibNAMECITY/STATERankSWIMRankT1RankBIKERankT2RankRUNPENALTYTIMEDQ
27928 144JEFF BERGGRENALEXANDRIA VA32700:21:2929400:04:4926700:59:4632200:03:4215000:23:45 01:53:30 
28046 166TODD BROMBERGBETHESDA MD27400:19:1027900:04:3023300:57:2830600:03:1431200:29:11 01:53:32 
28123 286MICHAEL GINDERLEXINGTON VA1800:12:0727200:04:1931601:03:5333400:03:5932000:29:34 01:53:51 
28244 302KAI GOODRICHARLINGTON VA24600:18:2530500:04:5627601:00:1130400:03:0927300:27:12 01:53:52 
28338 173RICH BRUNOALEXANDRIA VA25000:18:3122900:03:4832101:04:2117100:01:5922300:25:26 01:54:04 
28438 482WILLIAM MILLIGANWASHINGTON DC35000:24:339500:02:3026300:59:2525400:02:3421600:25:15 01:54:14 
28553 122GLENN AYERSRICHMOND VA19700:17:0527600:04:2425800:59:0234700:04:1632100:29:41 01:54:27 
28648 472JAY MESSENGERMCLEAN VA12600:15:1628200:04:3331801:04:0527400:02:4529000:27:55 01:54:32 
28739 516MIKE OGDENWEST FRIENDSHIP MD34700:23:5329600:04:5123500:57:3131000:03:2320900:25:03 01:54:39 
28848 560JON QUEITZSCHSPARKS MD35900:25:518200:02:2512600:52:5029300:02:5832700:30:54 01:54:57 
28931 135ANDREW BEEGANFALLS CHURCH VA25700:18:4430300:04:5528801:01:0732800:03:4825600:26:27 01:54:59 
29035 318SHAWN HANKSTAFFORD VA23100:18:0026200:04:1531401:03:5015600:01:5727900:27:22 01:55:23 
29139 357WESLEY HUFFFRONT ROYAL VA20400:17:1026000:04:1429301:01:3630700:03:1731700:29:21 01:55:37 
29229 142COREY BENJAMINRICHMOND VA22900:17:5821200:03:3731301:03:4916700:01:5830000:28:22 01:55:42 
29331 225ERIC DELGADOSILVER SPRING MD16000:16:1531300:05:0830901:03:3010600:01:3931800:29:28 01:55:58 
29475 724GENE WHITEMECHANICSVILLE VA25800:18:4534400:06:1725200:58:3932600:03:4530400:28:38 01:56:01 
29537 663KEITH TASHIMAALEXANDRIA VA30500:20:2926700:04:1831201:03:428200:01:2925400:26:20 01:56:17 
29630 242JACK EGLEARLINGTON VA24800:18:2735000:06:3430101:02:3334600:04:1520300:24:58 01:56:45 
29731C83SETH STEWARTVIENNA VA25600:18:4323900:03:5623400:57:3033100:03:5534300:32:46 01:56:48 
29844 255RICHARD FFRENCHGREAT FALLS VA31000:20:3811700:02:4130501:02:5315300:01:5530900:29:03 01:57:08 
29932 297TIMOTHY GOHMANRICHMOND VA34200:22:4533300:05:5822700:57:0535800:05:4324000:25:48 01:57:17 
30038 536TOBY PATTERSONALEXANDRIA VA35500:25:3531200:05:0724800:58:1030900:03:2021900:25:19 01:57:29 
30148 358WILLIAM HURSEYHAMPSTEAD MD32900:21:3125300:04:0627401:00:0331300:03:2830100:28:28 01:57:34 
30242 243JAY EICHBERGROCKVILLE MD22700:17:4717900:03:1631001:03:3233300:03:5931400:29:13 01:57:45 
30325 558DAVID PUGHALEXANDRIA VA18200:16:4634600:06:2530401:02:5029600:03:0331000:29:04 01:58:05 
30438 519KEVIN OLIVERALEXANDRIA VA           01:58:12 
30539 758HENRY TWEDDLEALEXANDRIA VA29600:20:0228300:04:3428501:00:4931800:03:3731600:29:17 01:58:17 
30654 665NILS TCHEYANCHEVY CHASE MD21900:17:3229200:04:4926100:59:1535200:04:2934200:32:45 01:58:48 
30725 491RANDAL MORANARLINGTON VA34400:23:2515900:03:0629001:01:119900:01:3632500:30:06 01:59:22 
30854 715KEITH WEBERFAIRFAX VA26200:18:4635900:07:2828301:00:4731500:03:3130800:29:01 01:59:32 
30926 264TIMOTHY FORDFREDERICK MD30600:20:2928400:04:3432801:05:3213900:01:4927400:27:13 01:59:36 
PlaceAgeCat.BibNAMECITY/STATERankSWIMRankT1RankBIKERankT2RankRUNPENALTYTIMEDQ
31027 639DAN SMITHALEXANDRIA VA4500:13:3031000:05:0633901:08:5325600:02:3432400:29:43 01:59:43 
31135 570ROB REGANVIENNA VA35400:25:2932600:05:3428601:00:5034100:04:0715800:23:50 01:59:47 
31254MC103TERRY VANDELINDEROANOKE VA34300:22:5822500:03:4528001:00:2430300:03:0832200:29:41 01:59:55 
31346 387STEVE KELLEYNORTH POTOMAC MD24500:18:2435200:06:3528701:00:5232000:03:3932600:30:46 02:00:14 
31449 534MARK PATERSONELLICOTT CITY MD18000:16:4433800:06:0429501:01:3932100:03:4033900:32:34 02:00:39 
31528 258TOM FINNARLINGTON VA33000:21:3834000:06:0532401:04:4211500:01:4226100:26:39 02:00:45 
31634 382SCOTT KAPUSCHANSKYANNAPOLIS MD28200:19:3432000:05:1632501:05:0429400:02:5929100:27:56 02:00:47 
31741 700MICHAEL VERNAZZAARLINGTON VA33700:22:0533100:05:4929201:01:1633800:04:0428500:27:37 02:00:50 
31833 421MARTIN LEBORGNEARLINGTON VA32300:21:1123000:03:4926800:59:4825100:02:3234900:33:36 02:00:55 
31929 320ERIC HARPERWARSAW VA34500:23:5035800:07:0229401:01:3729700:03:0325100:26:06 02:01:37 
32049 132TERRY BASHAMDUMFRIES VA35100:24:4935100:06:3532701:05:2423800:02:2612700:22:57 02:02:09 
32149 514JOHN NOLANWOODBRIDGE VA23600:18:0536400:09:1930001:02:2634400:04:1329700:28:12 02:02:13 
32231C756NIC MORROWROANOKE VA31100:20:4220200:03:2827801:00:207200:01:2635600:36:36 02:02:30 
32334 579SHAWN RICHARDASHBURN VA14900:15:5031700:05:1534901:13:4726500:02:3821200:25:07 02:02:36 
32431C65JOHN ENGLANDMECHANICSVILLE VA31700:20:5027300:04:2129901:02:0323400:02:2434700:33:26 02:03:02 
32543 385ALASDAIR KEITHFALLS CHURCH VA29200:19:4931800:05:1632001:04:1335000:04:1932300:29:43 02:03:18 
32625C81THOMAS SKINNERN. BETHESDA MD28000:19:3131500:05:1430601:02:5729200:02:5834400:32:55 02:03:32 
32763 397BRAD KIRLEYORANGE VA32000:20:5826600:04:1632201:04:4032300:03:4232900:31:12 02:04:47 
32845 376WES JONESPASADENA MD32600:21:2732700:05:3733401:07:4621600:02:1529300:28:00 02:05:04 
32952 334DAVE HENKELELLICOTT CITY MD26600:18:5633200:05:5230701:03:2135100:04:2234100:32:42 02:05:11 
33054 171SCOTT BROWNLINTHICUM MD27200:19:0725100:04:0433201:06:4728900:02:5433500:32:20 02:05:11 
33138C54CHUCK ALDERHAMPSTEAD MD32400:21:1426400:04:1632601:05:1832400:03:4432800:30:57 02:05:26 
33225 308ANDY GROSSROCKVILLE MD28800:19:4030900:05:0434101:09:5017400:02:0030700:29:00 02:05:32 
33336C84RICHARD STILBORNBERNARDSVILLE NJ16300:16:1933400:05:5833301:07:3627600:02:4735100:34:20 02:06:57 
33424 220PETER DAYRESTON VA6500:13:5832100:05:1734701:12:5622100:02:1833800:32:33 02:07:00 
33550 698CARLOS VEGHBETHESDA MD36100:28:5335500:06:4727901:00:2333500:04:0029500:28:07 02:08:08 
33633 542MARK PETERSSOUTH RIDING VA33900:22:1523800:03:5433001:06:1127200:02:4234500:33:21 02:08:22 
33728 396MATTHEW KIRKENDALLMANAKIN SABOT VA18400:16:4924400:04:0036001:20:0421800:02:1721700:25:16 02:08:23 
33841MC102MICHAEL PRESSNORTH POTOMAC MD33800:22:0831400:05:1232301:04:4134200:04:0933700:32:25 02:08:32 
33951 666WILLIAM THEOBALDANNANDALE VA31600:20:4830000:04:5234001:09:1411100:01:4233300:32:06 02:08:40 
34029EM26CAPPY SINCLAIRRICHMOND VA36300:30:0427000:04:1931701:04:0026900:02:4131300:29:13 02:10:15 
PlaceAgeCat.BibNAMECITY/STATERankSWIMRankT1RankBIKERankT2RankRUNPENALTYTIMEDQ
34132 244BENJAMIN ENGELWASHINGTON DC28900:19:4425800:04:1335801:18:0211400:01:4226800:26:59 02:10:38 
34228 633ANDY SILVERWASHINGTON DC9300:14:3218700:03:2033601:08:3523300:02:2436000:42:11 02:11:00 
34356 333WILLIAM HAYEKLANCASTER PA35600:25:4228700:04:4031901:04:1034000:04:0634000:32:39 02:11:15 
34434 554CHRIS POWELLLEESBURG VA29400:19:5632900:05:4334601:12:1433600:04:0031900:29:32 02:11:22 
34530 636JEFF SIXELKRIDGE MD23900:18:0735300:06:3635101:14:3833900:04:0529800:28:17 02:11:42 
34634 337JUSTIN HERRINGWASHINGTON DC4000:13:094800:02:0136201:29:4430100:03:0818400:24:31 02:12:32 
34729 569ROBERT REDFERNANNANDALE VA30800:20:3436000:07:3235701:17:0532500:03:4419500:24:44 02:13:37 
34832C80ANTHONY SCLAFANIWASHINGTON DC29100:19:4633900:06:0533101:06:2029500:03:0235700:38:38 02:13:49 
34934 350OTIS HOPSONLANHAM MD35800:25:4634500:06:2034301:10:3735700:04:5327800:27:20 02:14:55 
35029 433JOSHUA LOHNARLINGTON VA34900:24:0035700:07:0233501:08:3333000:03:5333400:32:06 02:15:32 
35135 471AUGUSTIN MERCADOGERMANTOWN MD33500:22:0118900:03:2134801:13:3031900:03:3934800:33:29 02:15:59 
35242 556BILL PRATTLOCUST GROVE VA36200:29:3716700:03:0935001:13:555400:01:2029600:28:10 02:16:10 
35335C76MICHAEL NEARYGAINESVILLE VA35700:25:4232300:05:2134401:10:5620700:02:1233600:32:23 02:16:33 
35455 590TOM ROLLERHERNDON VA32500:21:2125400:04:0635501:15:4525500:02:3435000:33:37 02:17:22 
35544 707KEN WAGNERBETHESDA MD32200:21:0833600:06:0035301:14:5335500:04:4033100:31:38 02:18:17 
35644 446MARK MAGEEFAIRFAX VA33300:21:5430700:05:0335601:16:5632700:03:4733000:31:15 02:18:53 
35761 593WILLIAM ROUGHTONFAIRFAX STATION VA33100:21:4334300:06:1334501:11:5033200:03:5835300:35:20 02:19:02 
35838C77TOM PUETZARLINGTON VA36500:31:0333000:05:4532901:05:4135900:05:5133200:32:02 02:20:20 
35969 498JOHN MULFLUREASTON MD27000:19:0436200:08:0233701:08:3936000:08:3735400:36:14 02:20:34 
36043MC99DAVID MERKINPOTOMAC MD36400:30:4928800:04:4229801:01:4828700:02:5436100:42:23 02:22:33 
36156 257TOM FINNWOODBRIDGE VA33600:22:0436300:08:5234201:09:5436100:09:1934600:33:23 02:23:31 
36251MC94STEVEN GROSSROCKVILLE MD22800:17:4834100:06:0635401:15:0934300:04:1335800:40:41 02:23:55 
36336C59SHAWN COBURNRESTON VA35200:25:0231900:05:1633801:08:4834800:04:1835900:41:44 02:25:07 
36465 301BILL GOODINGMONTCLAIR VA36000:27:1035400:06:4435201:14:5130000:03:0635200:35:06 02:26:56 
36565 695ROBERT VALENTINEMCLEAN VA36700:34:2835600:06:5636101:23:2835300:04:3535500:36:19 02:45:44 
36638 553KENNETH PORTERRESTON VA35300:25:2127700:04:25         
36742MC60HENRY COXALEXANDRIA VA30400:20:2634700:06:3035901:19:46       
36836 259MIKE FLAHERTYRICHMOND VA22000:17:3636100:07:5136301:30:08       
36926 515JOHN NOWOSLAWSKIVILLANOVA PA2200:12:146500:02:11         
37055 265GREGORY FORDFREDERICK MD36600:31:3636500:09:54         
37120 188ANTHONY CATALANOARLINGTON VA21300:17:17           
PlaceAgeCat.BibNAMECITY/STATERankSWIMRankT1RankBIKERankT2RankRUNPENALTYTIMEDQ
37240 752MAZYAR ZEINALICOLUMBIA MD34100:22:28           

** Results are for the private use of participants and are the Intellectual Property of Set Up Events. Unauthorized use of these results is prohibited.